createdAt,value
2019-04-30T00:04:37.646Z,8.28
2019-04-30T00:09:44.968Z,8.27
2019-04-30T00:14:52.087Z,7.62
2019-04-30T00:20:00.986Z,7.57
2019-04-30T00:25:06.890Z,7.44
2019-04-30T00:30:15.338Z,7.28
2019-04-30T00:35:21.256Z,7.23
2019-04-30T00:40:30.104Z,7.36
2019-04-30T00:45:39.878Z,7.15
2019-04-30T00:50:43.549Z,6.84
2019-04-30T00:55:49.161Z,6.69
2019-04-30T01:01:04.876Z,6.87
2019-04-30T01:06:10.847Z,7.06
2019-04-30T01:11:17.772Z,6.92
2019-04-30T01:16:23.755Z,6.78
2019-04-30T01:21:35.258Z,6.30
2019-04-30T01:26:40.767Z,6.05
2019-04-30T01:31:46.405Z,6.22
2019-04-30T01:36:54.157Z,6.28
2019-04-30T01:42:02.866Z,6.08
2019-04-30T01:47:13.027Z,6.47
2019-04-30T01:52:20.665Z,6.54
2019-04-30T01:57:53.167Z,6.53
2019-04-30T02:02:59.286Z,5.80
2019-04-30T02:08:04.720Z,5.47
2019-04-30T02:13:12.187Z,5.42
2019-04-30T02:18:20.253Z,5.63
2019-04-30T02:23:26.322Z,5.64
2019-04-30T02:28:31.687Z,6.00
2019-04-30T02:33:40.474Z,6.17
2019-04-30T02:38:49.731Z,6.15
2019-04-30T02:43:59.819Z,5.78
2019-04-30T02:49:06.896Z,5.29
2019-04-30T02:54:24.164Z,5.41
2019-04-30T02:59:33.887Z,5.16
2019-04-30T03:04:39.673Z,5.53
2019-04-30T03:09:45.181Z,5.41
2019-04-30T03:14:54.222Z,5.38
2019-04-30T03:20:05.744Z,5.38
2019-04-30T03:25:14.318Z,5.31
2019-04-30T03:30:22.228Z,5.08
2019-04-30T03:35:32.207Z,5.14
2019-04-30T03:40:40.442Z,4.91
2019-04-30T03:45:46.374Z,4.70
2019-04-30T03:50:56.915Z,4.77
2019-04-30T03:56:03.016Z,4.79
2019-04-30T04:01:24.836Z,4.83
2019-04-30T04:06:39.537Z,4.92
2019-04-30T04:11:47.295Z,4.68
2019-04-30T04:16:53.239Z,4.80
2019-04-30T04:22:04.229Z,4.82
2019-04-30T04:27:10.034Z,4.98
2019-04-30T04:32:23.628Z,5.38
2019-04-30T04:37:29.804Z,6.20
2019-04-30T04:42:34.788Z,7.42
2019-04-30T04:47:40.496Z,7.28
2019-04-30T04:52:45.941Z,8.15
2019-04-30T04:57:51.343Z,8.44
2019-04-30T05:03:39.901Z,8.52
2019-04-30T05:08:49.211Z,9.19
2019-04-30T05:13:56.636Z,10.32
2019-04-30T05:19:02.278Z,9.90
2019-04-30T05:24:09.046Z,11.58
2019-04-30T05:29:15.928Z,11.26
2019-04-30T05:34:22.898Z,12.57
2019-04-30T05:39:28.527Z,11.45
2019-04-30T05:44:34.032Z,12.81
2019-04-30T05:49:39.527Z,13.89
2019-04-30T05:54:48.567Z,12.63
2019-04-30T05:59:55.524Z,11.39
2019-04-30T06:05:01.160Z,11.53
2019-04-30T06:10:22.224Z,13.37
2019-04-30T06:15:41.328Z,14.38
2019-04-30T06:20:48.576Z,12.94
2019-04-30T06:26:00.435Z,11.02
2019-04-30T06:31:03.098Z,12.18
2019-04-30T06:36:11.616Z,13.66
2019-04-30T06:41:19.690Z,13.29
2019-04-30T06:46:24.912Z,13.66
2019-04-30T06:51:33.381Z,12.79
2019-04-30T06:56:38.902Z,10.85
2019-04-30T07:01:50.444Z,11.63
2019-04-30T07:07:09.119Z,15.22
2019-04-30T07:12:29.806Z,11.83
2019-04-30T07:17:49.144Z,13.41
2019-04-30T07:23:03.507Z,10.97
2019-04-30T07:28:11.853Z,11.87
2019-04-30T07:33:20.735Z,11.72
2019-04-30T07:38:35.772Z,12.04
2019-04-30T07:43:50.573Z,11.67
2019-04-30T07:49:04.271Z,11.57
2019-04-30T07:54:10.680Z,11.50
2019-04-30T07:59:26.503Z,13.12
2019-04-30T08:04:52.307Z,13.28
2019-04-30T08:10:03.230Z,11.67
2019-04-30T08:15:16.528Z,11.95
2019-04-30T08:20:31.637Z,12.42
2019-04-30T08:25:45.277Z,11.51
2019-04-30T08:30:59.003Z,10.98
2019-04-30T08:36:10.184Z,12.69
2019-04-30T08:41:21.759Z,12.24
2019-04-30T08:46:34.426Z,13.78
2019-04-30T08:51:49.038Z,12.85
2019-04-30T08:57:04.108Z,13.68
2019-04-30T09:02:16.452Z,13.50
2019-04-30T09:07:22.797Z,13.73
2019-04-30T09:12:30.335Z,11.83
2019-04-30T09:17:58.122Z,11.95
2019-04-30T09:22:59.639Z,13.57
2019-04-30T09:28:12.819Z,12.21
2019-04-30T09:33:29.437Z,12.46
2019-04-30T09:38:44.266Z,11.88
2019-04-30T09:44:10.137Z,12.80
2019-04-30T09:49:26.336Z,13.73
2019-04-30T09:54:40.464Z,13.05
2019-04-30T10:00:00.946Z,13.80
2019-04-30T10:05:08.785Z,12.70
2019-04-30T10:10:18.861Z,13.40
2019-04-30T10:15:54.140Z,13.68
2019-04-30T10:21:09.096Z,12.63
2019-04-30T10:26:20.015Z,13.51
2019-04-30T10:31:31.005Z,13.65
2019-04-30T10:36:41.447Z,13.51
2019-04-30T10:41:48.989Z,13.91
2019-04-30T10:46:54.926Z,13.31
2019-04-30T10:52:03.249Z,13.90
2019-04-30T10:57:10.037Z,13.68
2019-04-30T11:02:17.134Z,14.14
2019-04-30T11:07:23.827Z,14.86
2019-04-30T11:12:29.355Z,14.93
2019-04-30T11:17:36.673Z,15.03
2019-04-30T11:22:48.813Z,14.86
2019-04-30T11:28:02.424Z,15.12
2019-04-30T11:33:16.652Z,15.08
2019-04-30T11:38:25.474Z,14.52
2019-04-30T11:43:30.965Z,15.46
2019-04-30T11:48:44.435Z,14.33
2019-04-30T11:53:54.850Z,15.83
2019-04-30T11:59:00.260Z,15.37
2019-04-30T12:04:17.166Z,15.96
2019-04-30T12:09:43.735Z,16.05
2019-04-30T12:15:01.075Z,16.15
2019-04-30T12:20:11.486Z,16.47
2019-04-30T12:25:22.980Z,16.63
2019-04-30T12:30:30.250Z,16.33
2019-04-30T12:35:51.439Z,16.83
2019-04-30T12:46:38.631Z,17.09
2019-04-30T12:52:12.695Z,16.84
2019-04-30T12:57:58.895Z,16.77
2019-04-30T13:03:00.023Z,16.58
2019-04-30T13:08:06.264Z,16.95
2019-04-30T13:13:12.470Z,17.35
2019-04-30T13:18:19.496Z,16.66
2019-04-30T13:23:33.724Z,17.43
2019-04-30T13:29:07.040Z,17.49
2019-04-30T13:35:02.383Z,16.65
2019-04-30T13:40:36.396Z,17.45
2019-04-30T13:45:51.918Z,16.57
2019-04-30T13:51:07.156Z,16.79
2019-04-30T13:56:23.270Z,17.03
2019-04-30T14:01:48.887Z,17.80
2019-04-30T14:07:18.684Z,17.26
2019-04-30T14:12:36.330Z,17.77
2019-04-30T14:17:53.170Z,17.56
2019-04-30T14:23:12.436Z,17.36
2019-04-30T14:28:33.325Z,17.55
2019-04-30T14:33:52.560Z,17.41
2019-04-30T14:39:16.970Z,17.50
2019-04-30T14:44:41.775Z,17.60
2019-04-30T14:50:15.657Z,17.44
2019-04-30T14:55:54.771Z,17.80
2019-04-30T15:01:32.279Z,17.55
2019-04-30T15:06:53.720Z,17.33
2019-04-30T15:12:10.231Z,17.89
2019-04-30T15:17:27.841Z,17.76
2019-04-30T15:22:51.754Z,17.70
2019-04-30T15:28:13.310Z,17.43
2019-04-30T15:34:04.000Z,17.78
2019-04-30T15:39:31.036Z,17.85
2019-04-30T15:44:49.703Z,17.80
2019-04-30T15:50:13.590Z,17.43
2019-04-30T15:55:21.038Z,17.45
2019-04-30T16:00:31.361Z,17.55
2019-04-30T16:05:41.060Z,17.51
2019-04-30T16:11:07.425Z,17.75
2019-04-30T16:16:13.289Z,17.60
2019-04-30T16:21:19.335Z,17.29
2019-04-30T16:26:25.118Z,17.52
2019-04-30T16:31:30.489Z,17.27
2019-04-30T16:36:36.070Z,16.99
2019-04-30T16:41:41.613Z,16.94
2019-04-30T16:46:50.046Z,17.14
2019-04-30T16:51:55.731Z,16.86
2019-04-30T16:57:06.589Z,16.87
2019-04-30T17:02:12.752Z,16.69
2019-04-30T17:07:38.760Z,16.42
2019-04-30T17:13:03.526Z,16.66
2019-04-30T17:18:14.196Z,16.08
2019-04-30T17:23:19.526Z,16.14
2019-04-30T17:28:25.046Z,15.70
2019-04-30T17:33:31.662Z,15.28
2019-04-30T17:38:38.160Z,15.51
2019-04-30T17:43:43.686Z,14.94
2019-04-30T17:48:49.526Z,14.69
2019-04-30T17:54:14.334Z,14.59
2019-04-30T17:59:19.735Z,14.58
2019-04-30T18:04:25.523Z,14.46
2019-04-30T18:09:30.944Z,14.38
2019-04-30T18:14:36.310Z,14.31
2019-04-30T18:19:54.923Z,14.00
2019-04-30T18:25:07.829Z,13.95
2019-04-30T18:30:16.390Z,13.62
2019-04-30T18:35:22.233Z,13.68
2019-04-30T18:40:29.617Z,13.47
2019-04-30T18:45:36.386Z,13.37
2019-04-30T18:50:41.902Z,13.26
2019-04-30T18:55:50.764Z,13.40
2019-04-30T19:00:56.429Z,13.31
2019-04-30T19:06:06.182Z,13.18
2019-04-30T19:11:39.744Z,12.98
2019-04-30T19:17:04.374Z,12.93
2019-04-30T19:22:09.804Z,12.72
2019-04-30T19:27:15.116Z,12.94
2019-04-30T19:32:20.484Z,13.06
2019-04-30T19:37:25.695Z,12.96
2019-04-30T19:42:31.209Z,12.63
2019-04-30T19:47:36.602Z,12.73
2019-04-30T19:52:42.169Z,12.45
2019-04-30T19:57:48.769Z,12.48
2019-04-30T20:02:57.260Z,12.50
2019-04-30T20:08:01.650Z,12.03
2019-04-30T20:13:06.976Z,12.29
2019-04-30T20:18:12.422Z,12.11
2019-04-30T20:23:17.613Z,12.34
2019-04-30T20:28:22.910Z,11.63
2019-04-30T20:33:28.986Z,11.43
2019-04-30T20:38:52.058Z,11.17
2019-04-30T20:43:57.772Z,11.12
2019-04-30T20:49:03.318Z,11.17
2019-04-30T20:54:09.121Z,10.58
2019-04-30T20:59:14.665Z,10.39
2019-04-30T21:04:22.139Z,10.09
2019-04-30T21:09:29.883Z,9.87
2019-04-30T21:14:35.161Z,9.89
2019-04-30T21:19:41.439Z,9.60
2019-04-30T21:24:46.977Z,9.57
2019-04-30T21:29:52.472Z,9.39
2019-04-30T21:35:19.794Z,9.51
2019-04-30T21:40:25.223Z,9.57
2019-04-30T21:45:31.561Z,9.39
2019-04-30T21:50:37.173Z,9.12
2019-04-30T21:55:42.728Z,8.81
2019-04-30T22:01:06.942Z,8.76
2019-04-30T22:06:19.462Z,8.67
2019-04-30T22:11:24.828Z,8.53
2019-04-30T22:16:30.357Z,8.49
2019-04-30T22:21:36.063Z,8.43
2019-04-30T22:26:41.328Z,8.07
2019-04-30T22:31:46.686Z,8.06
2019-04-30T22:36:52.155Z,8.13
2019-04-30T22:42:11.623Z,7.73
2019-04-30T22:47:17.747Z,7.52
2019-04-30T22:52:23.269Z,7.33
2019-04-30T22:57:28.579Z,7.56
2019-04-30T23:02:46.893Z,7.81
2019-04-30T23:07:52.478Z,7.39
2019-04-30T23:12:57.839Z,7.23
2019-04-30T23:18:03.081Z,7.03
2019-04-30T23:23:08.707Z,7.05
2019-04-30T23:28:14.094Z,6.89
2019-04-30T23:33:19.525Z,6.86
2019-04-30T23:38:25.367Z,6.83
2019-04-30T23:43:31.325Z,6.65
2019-04-30T23:48:37.087Z,6.49
2019-04-30T23:53:42.527Z,6.65
2019-04-30T23:58:47.842Z,6.44
